sensor_id;sensor_type;location;lat;lon;timestamp;P1;durP1;ratioP1;P2;durP2;ratioP2
34695;SDS011;20918;51.138;17.370;2022-12-08T00:01:36;22.15;;;11.80;;
34695;SDS011;20918;51.138;17.370;2022-12-08T00:04:38;22.02;;;11.28;;
34695;SDS011;20918;51.138;17.370;2022-12-08T00:07:58;26.10;;;12.73;;
34695;SDS011;20918;51.138;17.370;2022-12-08T00:11:18;19.20;;;10.72;;
34695;SDS011;20918;51.138;17.370;2022-12-08T00:14:21;20.60;;;10.50;;
34695;SDS011;20918;51.138;17.370;2022-12-08T00:17:25;20.20;;;9.98;;
34695;SDS011;20918;51.138;17.370;2022-12-08T00:20:26;20.50;;;10.23;;
34695;SDS011;20918;51.138;17.370;2022-12-08T00:23:27;21.12;;;10.38;;
34695;SDS011;20918;51.138;17.370;2022-12-08T00:26:28;22.10;;;10.15;;
34695;SDS011;20918;51.138;17.370;2022-12-08T00:29:30;16.25;;;8.98;;
34695;SDS011;20918;51.138;17.370;2022-12-08T00:32:31;18.45;;;9.45;;
34695;SDS011;20918;51.138;17.370;2022-12-08T00:35:32;20.05;;;9.78;;
34695;SDS011;20918;51.138;17.370;2022-12-08T00:38:34;15.25;;;9.20;;
34695;SDS011;20918;51.138;17.370;2022-12-08T00:41:36;18.07;;;9.75;;
34695;SDS011;20918;51.138;17.370;2022-12-08T00:44:56;17.55;;;9.48;;
34695;SDS011;20918;51.138;17.370;2022-12-08T00:47:58;21.80;;;10.23;;
34695;SDS011;20918;51.138;17.370;2022-12-08T00:50:59;21.05;;;10.10;;
34695;SDS011;20918;51.138;17.370;2022-12-08T00:54:00;20.45;;;10.58;;
34695;SDS011;20918;51.138;17.370;2022-12-08T00:57:01;16.82;;;9.60;;
34695;SDS011;20918;51.138;17.370;2022-12-08T01:00:02;20.88;;;10.25;;
34695;SDS011;20918;51.138;17.370;2022-12-08T01:03:05;21.37;;;9.83;;
34695;SDS011;20918;51.138;17.370;2022-12-08T01:06:06;19.10;;;9.88;;
34695;SDS011;20918;51.138;17.370;2022-12-08T01:09:09;27.70;;;10.82;;
34695;SDS011;20918;51.138;17.370;2022-12-08T01:12:12;28.65;;;11.78;;
34695;SDS011;20918;51.138;17.370;2022-12-08T01:15:13;24.20;;;11.08;;
34695;SDS011;20918;51.138;17.370;2022-12-08T01:18:14;30.92;;;11.28;;
34695;SDS011;20918;51.138;17.370;2022-12-08T01:21:16;28.80;;;11.55;;
34695;SDS011;20918;51.138;17.370;2022-12-08T01:24:18;29.85;;;11.60;;
34695;SDS011;20918;51.138;17.370;2022-12-08T01:27:21;22.22;;;10.10;;
34695;SDS011;20918;51.138;17.370;2022-12-08T01:30:22;17.98;;;8.33;;
34695;SDS011;20918;51.138;17.370;2022-12-08T01:33:23;17.98;;;9.05;;
34695;SDS011;20918;51.138;17.370;2022-12-08T01:36:25;15.18;;;7.90;;
34695;SDS011;20918;51.138;17.370;2022-12-08T01:39:29;19.37;;;10.48;;
34695;SDS011;20918;51.138;17.370;2022-12-08T01:42:33;16.45;;;8.88;;
34695;SDS011;20918;51.138;17.370;2022-12-08T01:45:34;12.45;;;8.20;;
34695;SDS011;20918;51.138;17.370;2022-12-08T01:48:35;14.73;;;8.40;;
34695;SDS011;20918;51.138;17.370;2022-12-08T01:52:00;16.17;;;8.18;;
34695;SDS011;20918;51.138;17.370;2022-12-08T01:55:11;16.10;;;8.60;;
34695;SDS011;20918;51.138;17.370;2022-12-08T01:58:40;14.30;;;8.83;;
34695;SDS011;20918;51.138;17.370;2022-12-08T02:01:41;14.78;;;8.88;;
34695;SDS011;20918;51.138;17.370;2022-12-08T02:04:42;16.12;;;9.05;;
34695;SDS011;20918;51.138;17.370;2022-12-08T02:07:43;17.05;;;9.90;;
34695;SDS011;20918;51.138;17.370;2022-12-08T02:10:48;24.52;;;12.90;;
34695;SDS011;20918;51.138;17.370;2022-12-08T02:13:52;25.23;;;11.28;;
34695;SDS011;20918;51.138;17.370;2022-12-08T02:20:26;16.48;;;10.78;;
34695;SDS011;20918;51.138;17.370;2022-12-08T02:24:09;17.23;;;9.78;;
34695;SDS011;20918;51.138;17.370;2022-12-08T02:34:23;22.55;;;12.53;;
34695;SDS011;20918;51.138;17.370;2022-12-08T02:37:30;18.90;;;10.98;;
34695;SDS011;20918;51.138;17.370;2022-12-08T02:47:20;29.27;;;13.25;;
34695;SDS011;20918;51.138;17.370;2022-12-08T02:50:25;30.62;;;14.33;;
34695;SDS011;20918;51.138;17.370;2022-12-08T02:53:28;28.67;;;13.78;;
34695;SDS011;20918;51.138;17.370;2022-12-08T03:00:19;21.60;;;11.70;;
34695;SDS011;20918;51.138;17.370;2022-12-08T03:03:27;19.70;;;9.90;;
34695;SDS011;20918;51.138;17.370;2022-12-08T03:07:28;21.12;;;9.78;;
34695;SDS011;20918;51.138;17.370;2022-12-08T03:10:31;15.70;;;8.63;;
34695;SDS011;20918;51.138;17.370;2022-12-08T03:13:42;19.77;;;8.88;;
34695;SDS011;20918;51.138;17.370;2022-12-08T03:16:47;12.40;;;7.15;;
34695;SDS011;20918;51.138;17.370;2022-12-08T03:19:52;14.40;;;7.78;;
34695;SDS011;20918;51.138;17.370;2022-12-08T03:22:57;15.35;;;8.38;;
34695;SDS011;20918;51.138;17.370;2022-12-08T03:26:04;17.82;;;9.05;;
34695;SDS011;20918;51.138;17.370;2022-12-08T03:29:11;14.53;;;8.05;;
34695;SDS011;20918;51.138;17.370;2022-12-08T03:35:40;15.72;;;8.88;;
34695;SDS011;20918;51.138;17.370;2022-12-08T03:38:44;19.32;;;11.55;;
34695;SDS011;20918;51.138;17.370;2022-12-08T03:41:46;17.27;;;11.05;;
34695;SDS011;20918;51.138;17.370;2022-12-08T03:44:47;17.55;;;11.30;;
34695;SDS011;20918;51.138;17.370;2022-12-08T03:47:48;27.10;;;13.60;;
34695;SDS011;20918;51.138;17.370;2022-12-08T03:50:50;27.55;;;15.40;;
34695;SDS011;20918;51.138;17.370;2022-12-08T03:53:51;24.20;;;14.70;;
34695;SDS011;20918;51.138;17.370;2022-12-08T03:56:52;23.30;;;15.13;;
34695;SDS011;20918;51.138;17.370;2022-12-08T03:59:53;32.55;;;17.40;;
34695;SDS011;20918;51.138;17.370;2022-12-08T04:02:54;26.60;;;15.88;;
34695;SDS011;20918;51.138;17.370;2022-12-08T04:05:55;31.27;;;17.60;;
34695;SDS011;20918;51.138;17.370;2022-12-08T04:08:56;29.40;;;16.90;;
34695;SDS011;20918;51.138;17.370;2022-12-08T04:11:58;24.18;;;14.40;;
34695;SDS011;20918;51.138;17.370;2022-12-08T04:14:59;22.67;;;14.05;;
34695;SDS011;20918;51.138;17.370;2022-12-08T04:18:00;25.52;;;14.00;;
34695;SDS011;20918;51.138;17.370;2022-12-08T04:21:01;18.73;;;12.03;;
34695;SDS011;20918;51.138;17.370;2022-12-08T04:24:02;16.90;;;10.95;;
34695;SDS011;20918;51.138;17.370;2022-12-08T04:27:03;17.32;;;11.03;;
34695;SDS011;20918;51.138;17.370;2022-12-08T04:30:05;17.45;;;10.65;;
34695;SDS011;20918;51.138;17.370;2022-12-08T04:33:08;15.20;;;10.18;;
34695;SDS011;20918;51.138;17.370;2022-12-08T04:36:09;16.12;;;10.53;;
34695;SDS011;20918;51.138;17.370;2022-12-08T04:39:10;11.38;;;9.05;;
34695;SDS011;20918;51.138;17.370;2022-12-08T04:42:11;14.85;;;10.23;;
34695;SDS011;20918;51.138;17.370;2022-12-08T04:45:12;17.15;;;10.60;;
34695;SDS011;20918;51.138;17.370;2022-12-08T04:48:13;18.87;;;11.20;;
34695;SDS011;20918;51.138;17.370;2022-12-08T04:51:16;15.25;;;10.30;;
34695;SDS011;20918;51.138;17.370;2022-12-08T04:54:22;18.23;;;10.18;;
34695;SDS011;20918;51.138;17.370;2022-12-08T04:57:23;19.23;;;9.98;;
34695;SDS011;20918;51.138;17.370;2022-12-08T05:00:24;16.80;;;10.70;;
34695;SDS011;20918;51.138;17.370;2022-12-08T05:03:25;16.90;;;10.78;;
34695;SDS011;20918;51.138;17.370;2022-12-08T05:06:26;17.57;;;12.37;;
34695;SDS011;20918;51.138;17.370;2022-12-08T05:09:28;21.95;;;13.70;;
34695;SDS011;20918;51.138;17.370;2022-12-08T05:12:29;19.45;;;12.53;;
34695;SDS011;20918;51.138;17.370;2022-12-08T05:15:32;17.87;;;11.97;;
34695;SDS011;20918;51.138;17.370;2022-12-08T05:18:33;18.75;;;11.10;;
34695;SDS011;20918;51.138;17.370;2022-12-08T05:21:35;14.38;;;10.82;;
34695;SDS011;20918;51.138;17.370;2022-12-08T05:24:36;16.85;;;11.15;;
34695;SDS011;20918;51.138;17.370;2022-12-08T05:27:37;20.92;;;10.72;;
34695;SDS011;20918;51.138;17.370;2022-12-08T05:30:39;18.42;;;11.25;;
34695;SDS011;20918;51.138;17.370;2022-12-08T05:33:40;15.95;;;11.43;;
34695;SDS011;20918;51.138;17.370;2022-12-08T05:36:42;16.87;;;11.08;;
34695;SDS011;20918;51.138;17.370;2022-12-08T05:39:43;15.90;;;11.08;;
34695;SDS011;20918;51.138;17.370;2022-12-08T05:42:47;16.70;;;11.55;;
34695;SDS011;20918;51.138;17.370;2022-12-08T05:45:49;20.72;;;12.73;;
34695;SDS011;20918;51.138;17.370;2022-12-08T05:48:50;17.65;;;10.88;;
34695;SDS011;20918;51.138;17.370;2022-12-08T05:51:51;18.73;;;11.73;;
34695;SDS011;20918;51.138;17.370;2022-12-08T05:54:52;19.37;;;12.15;;
34695;SDS011;20918;51.138;17.370;2022-12-08T05:57:53;16.87;;;12.60;;
34695;SDS011;20918;51.138;17.370;2022-12-08T06:00:54;21.10;;;13.08;;
34695;SDS011;20918;51.138;17.370;2022-12-08T06:03:58;22.02;;;14.35;;
34695;SDS011;20918;51.138;17.370;2022-12-08T06:07:02;20.97;;;14.13;;
34695;SDS011;20918;51.138;17.370;2022-12-08T06:10:03;22.15;;;15.30;;
34695;SDS011;20918;51.138;17.370;2022-12-08T06:13:06;27.35;;;17.30;;
34695;SDS011;20918;51.138;17.370;2022-12-08T06:16:08;31.55;;;18.70;;
34695;SDS011;20918;51.138;17.370;2022-12-08T06:19:09;32.48;;;17.50;;
34695;SDS011;20918;51.138;17.370;2022-12-08T06:22:10;27.40;;;17.37;;
34695;SDS011;20918;51.138;17.370;2022-12-08T06:25:11;28.32;;;17.60;;
34695;SDS011;20918;51.138;17.370;2022-12-08T06:28:12;28.83;;;18.30;;
34695;SDS011;20918;51.138;17.370;2022-12-08T06:31:14;31.80;;;18.55;;
34695;SDS011;20918;51.138;17.370;2022-12-08T06:34:19;27.02;;;16.42;;
34695;SDS011;20918;51.138;17.370;2022-12-08T06:37:20;31.00;;;18.07;;
34695;SDS011;20918;51.138;17.370;2022-12-08T06:40:21;28.98;;;17.20;;
34695;SDS011;20918;51.138;17.370;2022-12-08T06:43:22;23.25;;;15.70;;
34695;SDS011;20918;51.138;17.370;2022-12-08T06:46:24;28.98;;;16.93;;
34695;SDS011;20918;51.138;17.370;2022-12-08T06:49:25;32.67;;;18.77;;
34695;SDS011;20918;51.138;17.370;2022-12-08T06:52:26;30.35;;;18.17;;
34695;SDS011;20918;51.138;17.370;2022-12-08T06:55:27;30.90;;;18.12;;
34695;SDS011;20918;51.138;17.370;2022-12-08T06:58:28;31.17;;;18.85;;
34695;SDS011;20918;51.138;17.370;2022-12-08T07:01:29;31.07;;;17.85;;
34695;SDS011;20918;51.138;17.370;2022-12-08T07:04:32;29.05;;;17.50;;
34695;SDS011;20918;51.138;17.370;2022-12-08T07:07:33;30.52;;;16.73;;
34695;SDS011;20918;51.138;17.370;2022-12-08T07:10:34;25.75;;;16.35;;
34695;SDS011;20918;51.138;17.370;2022-12-08T07:13:36;27.62;;;16.23;;
34695;SDS011;20918;51.138;17.370;2022-12-08T07:16:37;26.93;;;15.28;;
34695;SDS011;20918;51.138;17.370;2022-12-08T07:19:38;23.30;;;15.23;;
34695;SDS011;20918;51.138;17.370;2022-12-08T07:22:39;23.95;;;14.03;;
34695;SDS011;20918;51.138;17.370;2022-12-08T07:25:41;26.40;;;14.63;;
34695;SDS011;20918;51.138;17.370;2022-12-08T07:28:42;24.95;;;14.87;;
34695;SDS011;20918;51.138;17.370;2022-12-08T07:31:43;23.07;;;14.60;;
34695;SDS011;20918;51.138;17.370;2022-12-08T07:34:45;24.75;;;13.68;;
34695;SDS011;20918;51.138;17.370;2022-12-08T07:37:46;19.57;;;12.80;;
34695;SDS011;20918;51.138;17.370;2022-12-08T07:40:47;21.95;;;12.13;;
34695;SDS011;20918;51.138;17.370;2022-12-08T07:43:48;17.77;;;11.70;;
34695;SDS011;20918;51.138;17.370;2022-12-08T07:46:50;19.25;;;11.12;;
34695;SDS011;20918;51.138;17.370;2022-12-08T07:49:51;17.37;;;12.20;;
34695;SDS011;20918;51.138;17.370;2022-12-08T07:52:52;19.10;;;11.70;;
34695;SDS011;20918;51.138;17.370;2022-12-08T07:55:53;17.90;;;11.43;;
34695;SDS011;20918;51.138;17.370;2022-12-08T07:58:55;15.53;;;11.08;;
34695;SDS011;20918;51.138;17.370;2022-12-08T08:01:56;17.55;;;10.28;;
34695;SDS011;20918;51.138;17.370;2022-12-08T08:04:57;16.42;;;10.95;;
34695;SDS011;20918;51.138;17.370;2022-12-08T08:07:58;15.08;;;10.45;;
34695;SDS011;20918;51.138;17.370;2022-12-08T08:10:59;16.95;;;11.25;;
34695;SDS011;20918;51.138;17.370;2022-12-08T08:14:00;20.20;;;11.50;;
34695;SDS011;20918;51.138;17.370;2022-12-08T08:17:02;17.60;;;11.78;;
34695;SDS011;20918;51.138;17.370;2022-12-08T08:20:04;17.37;;;10.82;;
34695;SDS011;20918;51.138;17.370;2022-12-08T08:23:07;13.53;;;10.50;;
34695;SDS011;20918;51.138;17.370;2022-12-08T08:26:08;15.65;;;10.65;;
34695;SDS011;20918;51.138;17.370;2022-12-08T08:29:10;22.13;;;12.98;;
34695;SDS011;20918;51.138;17.370;2022-12-08T08:32:11;18.90;;;11.75;;
34695;SDS011;20918;51.138;17.370;2022-12-08T08:35:12;17.07;;;11.45;;
34695;SDS011;20918;51.138;17.370;2022-12-08T08:38:14;17.87;;;10.65;;
34695;SDS011;20918;51.138;17.370;2022-12-08T08:41:15;14.98;;;10.43;;
34695;SDS011;20918;51.138;17.370;2022-12-08T08:44:18;16.25;;;10.70;;
34695;SDS011;20918;51.138;17.370;2022-12-08T08:47:19;16.15;;;11.45;;
34695;SDS011;20918;51.138;17.370;2022-12-08T08:50:20;15.93;;;11.63;;
34695;SDS011;20918;51.138;17.370;2022-12-08T08:53:22;15.20;;;10.88;;
34695;SDS011;20918;51.138;17.370;2022-12-08T08:56:23;16.73;;;11.08;;
34695;SDS011;20918;51.138;17.370;2022-12-08T08:59:25;16.97;;;11.55;;
34695;SDS011;20918;51.138;17.370;2022-12-08T09:02:27;18.42;;;12.15;;
34695;SDS011;20918;51.138;17.370;2022-12-08T09:05:28;13.03;;;9.90;;
34695;SDS011;20918;51.138;17.370;2022-12-08T09:08:29;12.43;;;9.85;;
34695;SDS011;20918;51.138;17.370;2022-12-08T09:11:31;17.12;;;9.90;;
34695;SDS011;20918;51.138;17.370;2022-12-08T09:14:32;14.43;;;9.85;;
34695;SDS011;20918;51.138;17.370;2022-12-08T09:17:34;13.20;;;9.40;;
34695;SDS011;20918;51.138;17.370;2022-12-08T09:20:35;14.58;;;10.20;;
34695;SDS011;20918;51.138;17.370;2022-12-08T09:23:36;14.43;;;10.15;;
34695;SDS011;20918;51.138;17.370;2022-12-08T09:26:37;13.62;;;9.05;;
34695;SDS011;20918;51.138;17.370;2022-12-08T09:29:38;14.38;;;9.33;;
34695;SDS011;20918;51.138;17.370;2022-12-08T09:32:40;13.25;;;9.03;;
34695;SDS011;20918;51.138;17.370;2022-12-08T09:35:41;12.65;;;9.28;;
34695;SDS011;20918;51.138;17.370;2022-12-08T09:38:42;13.25;;;9.53;;
34695;SDS011;20918;51.138;17.370;2022-12-08T09:41:48;13.15;;;8.75;;
34695;SDS011;20918;51.138;17.370;2022-12-08T09:48:17;21.52;;;12.63;;
34695;SDS011;20918;51.138;17.370;2022-12-08T09:51:26;14.65;;;9.20;;
34695;SDS011;20918;51.138;17.370;2022-12-08T09:54:35;22.30;;;10.75;;
34695;SDS011;20918;51.138;17.370;2022-12-08T09:57:36;20.15;;;10.85;;
34695;SDS011;20918;51.138;17.370;2022-12-08T10:00:37;19.90;;;11.30;;
34695;SDS011;20918;51.138;17.370;2022-12-08T10:03:39;16.05;;;8.43;;
34695;SDS011;20918;51.138;17.370;2022-12-08T10:06:47;18.02;;;10.15;;
34695;SDS011;20918;51.138;17.370;2022-12-08T10:13:45;14.73;;;7.85;;
34695;SDS011;20918;51.138;17.370;2022-12-08T10:17:16;18.45;;;10.05;;
34695;SDS011;20918;51.138;17.370;2022-12-08T10:20:24;10.53;;;7.62;;
34695;SDS011;20918;51.138;17.370;2022-12-08T10:23:35;11.30;;;7.72;;
34695;SDS011;20918;51.138;17.370;2022-12-08T10:26:39;13.05;;;8.63;;
34695;SDS011;20918;51.138;17.370;2022-12-08T10:29:40;11.63;;;8.20;;
34695;SDS011;20918;51.138;17.370;2022-12-08T10:32:43;12.13;;;8.25;;
34695;SDS011;20918;51.138;17.370;2022-12-08T10:35:54;11.33;;;7.90;;
34695;SDS011;20918;51.138;17.370;2022-12-08T10:39:01;14.95;;;9.28;;
34695;SDS011;20918;51.138;17.370;2022-12-08T10:45:24;11.88;;;7.67;;
34695;SDS011;20918;51.138;17.370;2022-12-08T10:48:32;12.07;;;8.13;;
34695;SDS011;20918;51.138;17.370;2022-12-08T10:54:41;11.75;;;8.13;;
34695;SDS011;20918;51.138;17.370;2022-12-08T10:57:44;17.73;;;10.72;;
34695;SDS011;20918;51.138;17.370;2022-12-08T11:00:59;18.60;;;11.33;;
34695;SDS011;20918;51.138;17.370;2022-12-08T11:04:22;18.95;;;10.85;;
34695;SDS011;20918;51.138;17.370;2022-12-08T11:07:30;15.88;;;9.53;;
34695;SDS011;20918;51.138;17.370;2022-12-08T11:10:35;18.12;;;11.50;;
34695;SDS011;20918;51.138;17.370;2022-12-08T11:13:40;16.23;;;9.10;;
34695;SDS011;20918;51.138;17.370;2022-12-08T11:16:42;17.65;;;11.63;;
34695;SDS011;20918;51.138;17.370;2022-12-08T11:19:45;15.45;;;9.63;;
34695;SDS011;20918;51.138;17.370;2022-12-08T11:22:59;17.35;;;10.20;;
34695;SDS011;20918;51.138;17.370;2022-12-08T11:26:02;15.75;;;10.35;;
34695;SDS011;20918;51.138;17.370;2022-12-08T11:29:09;15.32;;;9.70;;
34695;SDS011;20918;51.138;17.370;2022-12-08T11:32:12;14.13;;;8.70;;
34695;SDS011;20918;51.138;17.370;2022-12-08T11:35:17;17.15;;;9.80;;
34695;SDS011;20918;51.138;17.370;2022-12-08T11:38:39;12.63;;;8.60;;
34695;SDS011;20918;51.138;17.370;2022-12-08T11:41:45;11.45;;;7.80;;
34695;SDS011;20918;51.138;17.370;2022-12-08T11:44:52;12.07;;;8.45;;
34695;SDS011;20918;51.138;17.370;2022-12-08T11:51:29;12.82;;;8.73;;
34695;SDS011;20918;51.138;17.370;2022-12-08T11:54:48;12.65;;;9.13;;
34695;SDS011;20918;51.138;17.370;2022-12-08T12:01:26;11.43;;;8.18;;
34695;SDS011;20918;51.138;17.370;2022-12-08T12:14:38;22.98;;;11.95;;
34695;SDS011;20918;51.138;17.370;2022-12-08T12:18:00;17.50;;;10.50;;
34695;SDS011;20918;51.138;17.370;2022-12-08T12:24:43;18.05;;;10.18;;
34695;SDS011;20918;51.138;17.370;2022-12-08T12:27:47;14.58;;;9.23;;
34695;SDS011;20918;51.138;17.370;2022-12-08T12:30:59;13.00;;;9.13;;
34695;SDS011;20918;51.138;17.370;2022-12-08T12:34:14;18.77;;;10.20;;
34695;SDS011;20918;51.138;17.370;2022-12-08T12:37:34;20.20;;;11.03;;
34695;SDS011;20918;51.138;17.370;2022-12-08T12:40:39;17.57;;;9.75;;
34695;SDS011;20918;51.138;17.370;2022-12-08T12:44:05;24.50;;;12.80;;
34695;SDS011;20918;51.138;17.370;2022-12-08T12:47:10;25.45;;;13.62;;
34695;SDS011;20918;51.138;17.370;2022-12-08T12:51:00;22.93;;;11.65;;
34695;SDS011;20918;51.138;17.370;2022-12-08T12:56:50;23.55;;;14.20;;
34695;SDS011;20918;51.138;17.370;2022-12-08T13:03:11;46.10;;;21.60;;
34695;SDS011;20918;51.138;17.370;2022-12-08T13:06:20;42.83;;;17.85;;
34695;SDS011;20918;51.138;17.370;2022-12-08T13:09:17;39.23;;;16.82;;
34695;SDS011;20918;51.138;17.370;2022-12-08T13:12:25;15.83;;;8.50;;
34695;SDS011;20918;51.138;17.370;2022-12-08T13:15:32;38.30;;;17.12;;
34695;SDS011;20918;51.138;17.370;2022-12-08T13:18:49;25.30;;;10.68;;
34695;SDS011;20918;51.138;17.370;2022-12-08T13:21:54;25.75;;;12.20;;
34695;SDS011;20918;51.138;17.370;2022-12-08T13:25:16;40.43;;;15.80;;
34695;SDS011;20918;51.138;17.370;2022-12-08T13:34:54;13.15;;;7.78;;
34695;SDS011;20918;51.138;17.370;2022-12-08T13:37:59;13.88;;;8.60;;
34695;SDS011;20918;51.138;17.370;2022-12-08T13:41:04;14.47;;;9.30;;
34695;SDS011;20918;51.138;17.370;2022-12-08T13:44:29;13.90;;;9.35;;
34695;SDS011;20918;51.138;17.370;2022-12-08T13:47:52;17.65;;;10.65;;
34695;SDS011;20918;51.138;17.370;2022-12-08T13:51:17;15.10;;;9.45;;
34695;SDS011;20918;51.138;17.370;2022-12-08T13:54:38;14.75;;;9.38;;
34695;SDS011;20918;51.138;17.370;2022-12-08T13:57:40;14.90;;;9.18;;
34695;SDS011;20918;51.138;17.370;2022-12-08T14:00:42;17.95;;;9.88;;
34695;SDS011;20918;51.138;17.370;2022-12-08T14:10:02;14.00;;;8.03;;
34695;SDS011;20918;51.138;17.370;2022-12-08T14:13:10;14.03;;;8.65;;
34695;SDS011;20918;51.138;17.370;2022-12-08T14:16:25;14.60;;;10.25;;
34695;SDS011;20918;51.138;17.370;2022-12-08T14:19:41;21.00;;;12.53;;
34695;SDS011;20918;51.138;17.370;2022-12-08T14:22:44;16.00;;;9.63;;
34695;SDS011;20918;51.138;17.370;2022-12-08T14:25:46;12.65;;;7.85;;
34695;SDS011;20918;51.138;17.370;2022-12-08T14:28:49;11.45;;;7.00;;
34695;SDS011;20918;51.138;17.370;2022-12-08T14:31:51;10.58;;;7.58;;
34695;SDS011;20918;51.138;17.370;2022-12-08T14:35:01;13.28;;;8.05;;
34695;SDS011;20918;51.138;17.370;2022-12-08T14:38:10;11.53;;;8.15;;
34695;SDS011;20918;51.138;17.370;2022-12-08T14:41:16;10.15;;;7.97;;
34695;SDS011;20918;51.138;17.370;2022-12-08T14:44:23;17.82;;;11.18;;
34695;SDS011;20918;51.138;17.370;2022-12-08T14:47:27;19.87;;;9.60;;
34695;SDS011;20918;51.138;17.370;2022-12-08T14:54:21;10.05;;;6.58;;
34695;SDS011;20918;51.138;17.370;2022-12-08T14:57:22;14.10;;;7.47;;
34695;SDS011;20918;51.138;17.370;2022-12-08T15:00:29;15.13;;;8.05;;
34695;SDS011;20918;51.138;17.370;2022-12-08T15:03:31;13.98;;;8.53;;
34695;SDS011;20918;51.138;17.370;2022-12-08T15:06:35;17.17;;;8.90;;
34695;SDS011;20918;51.138;17.370;2022-12-08T15:09:37;13.18;;;8.73;;
34695;SDS011;20918;51.138;17.370;2022-12-08T15:16:50;18.92;;;9.73;;
34695;SDS011;20918;51.138;17.370;2022-12-08T15:19:38;20.08;;;11.68;;
34695;SDS011;20918;51.138;17.370;2022-12-08T15:22:40;23.22;;;13.62;;
34695;SDS011;20918;51.138;17.370;2022-12-08T15:25:41;27.85;;;16.52;;
34695;SDS011;20918;51.138;17.370;2022-12-08T15:28:42;28.07;;;16.25;;
34695;SDS011;20918;51.138;17.370;2022-12-08T15:31:44;28.32;;;15.05;;
34695;SDS011;20918;51.138;17.370;2022-12-08T15:34:45;37.20;;;18.55;;
34695;SDS011;20918;51.138;17.370;2022-12-08T15:37:47;29.75;;;16.35;;
34695;SDS011;20918;51.138;17.370;2022-12-08T15:40:48;24.40;;;15.13;;
34695;SDS011;20918;51.138;17.370;2022-12-08T15:43:50;23.52;;;13.65;;
34695;SDS011;20918;51.138;17.370;2022-12-08T15:46:51;20.05;;;14.03;;
34695;SDS011;20918;51.138;17.370;2022-12-08T15:49:53;28.92;;;15.72;;
34695;SDS011;20918;51.138;17.370;2022-12-08T15:52:55;34.33;;;18.05;;
34695;SDS011;20918;51.138;17.370;2022-12-08T15:55:56;40.35;;;20.62;;
34695;SDS011;20918;51.138;17.370;2022-12-08T15:58:58;27.10;;;15.13;;
34695;SDS011;20918;51.138;17.370;2022-12-08T16:01:59;21.48;;;12.73;;
34695;SDS011;20918;51.138;17.370;2022-12-08T16:05:00;19.52;;;11.85;;
34695;SDS011;20918;51.138;17.370;2022-12-08T16:08:01;19.50;;;12.00;;
34695;SDS011;20918;51.138;17.370;2022-12-08T16:11:03;20.05;;;12.13;;
34695;SDS011;20918;51.138;17.370;2022-12-08T16:14:06;26.23;;;14.10;;
34695;SDS011;20918;51.138;17.370;2022-12-08T16:17:14;24.15;;;13.80;;
34695;SDS011;20918;51.138;17.370;2022-12-08T16:20:16;25.43;;;15.60;;
34695;SDS011;20918;51.138;17.370;2022-12-08T16:23:18;29.02;;;16.10;;
34695;SDS011;20918;51.138;17.370;2022-12-08T16:26:20;33.05;;;15.83;;
34695;SDS011;20918;51.138;17.370;2022-12-08T16:29:23;29.10;;;16.35;;
34695;SDS011;20918;51.138;17.370;2022-12-08T16:32:25;33.30;;;17.67;;
34695;SDS011;20918;51.138;17.370;2022-12-08T16:35:27;34.55;;;19.17;;
34695;SDS011;20918;51.138;17.370;2022-12-08T16:38:28;32.17;;;19.40;;
34695;SDS011;20918;51.138;17.370;2022-12-08T16:41:30;42.23;;;21.50;;
34695;SDS011;20918;51.138;17.370;2022-12-08T16:44:49;28.67;;;16.45;;
34695;SDS011;20918;51.138;17.370;2022-12-08T16:47:55;25.05;;;15.28;;
34695;SDS011;20918;51.138;17.370;2022-12-08T16:50:59;26.00;;;15.30;;
34695;SDS011;20918;51.138;17.370;2022-12-08T16:54:00;26.10;;;15.00;;
34695;SDS011;20918;51.138;17.370;2022-12-08T16:57:02;27.95;;;15.95;;
34695;SDS011;20918;51.138;17.370;2022-12-08T17:00:04;26.95;;;15.00;;
34695;SDS011;20918;51.138;17.370;2022-12-08T17:03:09;31.55;;;16.95;;
34695;SDS011;20918;51.138;17.370;2022-12-08T17:06:15;33.53;;;18.17;;
34695;SDS011;20918;51.138;17.370;2022-12-08T17:09:18;32.08;;;17.70;;
34695;SDS011;20918;51.138;17.370;2022-12-08T17:12:19;33.75;;;18.52;;
34695;SDS011;20918;51.138;17.370;2022-12-08T17:15:22;35.95;;;19.42;;
34695;SDS011;20918;51.138;17.370;2022-12-08T17:18:25;33.63;;;18.62;;
34695;SDS011;20918;51.138;17.370;2022-12-08T17:21:26;32.03;;;18.17;;
34695;SDS011;20918;51.138;17.370;2022-12-08T17:24:27;35.17;;;19.45;;
34695;SDS011;20918;51.138;17.370;2022-12-08T17:27:30;28.75;;;17.90;;
34695;SDS011;20918;51.138;17.370;2022-12-08T17:30:31;27.27;;;16.40;;
34695;SDS011;20918;51.138;17.370;2022-12-08T17:33:33;26.48;;;16.37;;
34695;SDS011;20918;51.138;17.370;2022-12-08T17:36:34;25.32;;;14.98;;
34695;SDS011;20918;51.138;17.370;2022-12-08T17:39:36;27.52;;;15.68;;
34695;SDS011;20918;51.138;17.370;2022-12-08T17:42:38;30.52;;;16.10;;
34695;SDS011;20918;51.138;17.370;2022-12-08T17:45:43;27.32;;;17.70;;
34695;SDS011;20918;51.138;17.370;2022-12-08T17:48:48;29.32;;;17.40;;
34695;SDS011;20918;51.138;17.370;2022-12-08T17:51:51;32.98;;;18.73;;
34695;SDS011;20918;51.138;17.370;2022-12-08T17:54:55;35.65;;;19.05;;
34695;SDS011;20918;51.138;17.370;2022-12-08T17:57:56;61.83;;;30.10;;
34695;SDS011;20918;51.138;17.370;2022-12-08T18:00:57;47.62;;;23.35;;
34695;SDS011;20918;51.138;17.370;2022-12-08T18:03:59;38.42;;;17.87;;
34695;SDS011;20918;51.138;17.370;2022-12-08T18:07:02;29.98;;;18.80;;
34695;SDS011;20918;51.138;17.370;2022-12-08T18:10:03;35.03;;;19.60;;
34695;SDS011;20918;51.138;17.370;2022-12-08T18:13:06;35.33;;;21.15;;
34695;SDS011;20918;51.138;17.370;2022-12-08T18:16:08;36.13;;;20.82;;
34695;SDS011;20918;51.138;17.370;2022-12-08T18:19:11;33.30;;;20.50;;
34695;SDS011;20918;51.138;17.370;2022-12-08T18:22:13;35.68;;;20.10;;
34695;SDS011;20918;51.138;17.370;2022-12-08T18:25:15;36.48;;;20.00;;
34695;SDS011;20918;51.138;17.370;2022-12-08T18:28:16;35.35;;;20.55;;
34695;SDS011;20918;51.138;17.370;2022-12-08T18:31:18;45.03;;;24.72;;
34695;SDS011;20918;51.138;17.370;2022-12-08T18:34:21;39.88;;;23.38;;
34695;SDS011;20918;51.138;17.370;2022-12-08T18:37:22;39.15;;;22.58;;
34695;SDS011;20918;51.138;17.370;2022-12-08T18:40:23;40.38;;;20.92;;
34695;SDS011;20918;51.138;17.370;2022-12-08T18:43:26;35.52;;;20.15;;
34695;SDS011;20918;51.138;17.370;2022-12-08T18:46:27;35.10;;;20.48;;
34695;SDS011;20918;51.138;17.370;2022-12-08T18:49:27;34.08;;;20.65;;
34695;SDS011;20918;51.138;17.370;2022-12-08T18:52:29;29.70;;;17.55;;
34695;SDS011;20918;51.138;17.370;2022-12-08T18:55:30;33.60;;;19.02;;
34695;SDS011;20918;51.138;17.370;2022-12-08T18:58:32;33.10;;;18.35;;
34695;SDS011;20918;51.138;17.370;2022-12-08T19:01:35;29.15;;;18.35;;
34695;SDS011;20918;51.138;17.370;2022-12-08T19:04:38;36.95;;;20.82;;
34695;SDS011;20918;51.138;17.370;2022-12-08T19:07:42;41.98;;;23.52;;
34695;SDS011;20918;51.138;17.370;2022-12-08T19:10:45;51.70;;;24.32;;
34695;SDS011;20918;51.138;17.370;2022-12-08T19:13:46;67.00;;;33.88;;